createdAt,value
2023-02-17T00:01:41.446Z,98822.19
2023-02-17T00:04:10.339Z,98825.69
2023-02-17T00:06:39.596Z,98843.09
2023-02-17T00:09:08.597Z,98843.97
2023-02-17T00:11:37.669Z,98854.16
2023-02-17T00:14:06.441Z,98844.81
2023-02-17T00:16:35.362Z,98840.75
2023-02-17T00:19:24.970Z,98841.47
2023-02-17T00:21:59.984Z,98851.69
2023-02-17T00:24:31.678Z,98870.63
2023-02-17T00:27:01.185Z,98881.09
2023-02-17T00:29:30.196Z,98886.31
2023-02-17T00:32:00.785Z,98874.28
2023-02-17T00:34:29.754Z,98872.50
2023-02-17T00:36:58.436Z,98872.56
2023-02-17T00:39:27.973Z,98875.25
2023-02-17T00:41:56.817Z,98885.63
2023-02-17T00:44:26.199Z,98880.47
2023-02-17T00:46:55.117Z,98881.34
2023-02-17T00:49:26.640Z,98875.22
2023-02-17T00:51:55.722Z,98878.03
2023-02-17T00:54:24.484Z,98877.25
2023-02-17T00:56:53.478Z,98881.47
2023-02-17T00:59:22.472Z,98885.75
2023-02-17T01:01:53.902Z,98894.31
2023-02-17T01:04:23.595Z,98905.56
2023-02-17T01:06:52.953Z,98909.03
2023-02-17T01:09:24.010Z,98910.69
2023-02-17T01:11:53.884Z,98904.88
2023-02-17T01:14:23.351Z,98906.94
2023-02-17T01:16:52.366Z,98915.38
2023-02-17T01:19:22.554Z,98920.50
2023-02-17T01:21:51.857Z,98922.19
2023-02-17T01:24:20.602Z,98923.28
2023-02-17T01:26:49.688Z,98923.44
2023-02-17T01:29:18.598Z,98923.47
2023-02-17T01:31:47.999Z,98931.19
2023-02-17T01:34:17.245Z,98930.31
2023-02-17T01:36:46.370Z,98927.09
2023-02-17T01:39:17.099Z,98939.06
2023-02-17T01:41:48.533Z,98943.38
2023-02-17T01:44:25.933Z,98952.81
2023-02-17T01:46:57.241Z,98957.38
2023-02-17T01:49:39.609Z,98953.84
2023-02-17T01:52:12.236Z,98953.09
2023-02-17T01:55:03.855Z,98959.88
2023-02-17T01:57:36.925Z,98969.66
2023-02-17T02:00:09.432Z,98971.38
2023-02-17T02:02:45.709Z,98959.59
2023-02-17T02:05:17.529Z,98960.41
2023-02-17T02:07:48.752Z,98968.97
2023-02-17T02:10:20.263Z,98971.50
2023-02-17T02:12:49.615Z,98978.47
2023-02-17T02:15:24.118Z,98970.59
2023-02-17T02:18:05.481Z,98981.72
2023-02-17T02:20:35.516Z,98995.56
2023-02-17T02:23:34.581Z,98993.66
2023-02-17T02:26:37.124Z,98999.63
2023-02-17T02:29:23.659Z,99007.25
2023-02-17T02:32:19.265Z,99014.13
2023-02-17T02:35:04.196Z,99011.53
2023-02-17T02:38:06.711Z,99012.88
2023-02-17T02:40:41.680Z,99018.06
2023-02-17T02:43:11.285Z,99023.22
2023-02-17T02:45:40.774Z,99029.13
2023-02-17T02:48:09.984Z,99031.66
2023-02-17T02:51:07.526Z,99041.59
2023-02-17T02:53:54.956Z,99048.72
2023-02-17T02:56:49.710Z,99048.34
2023-02-17T02:59:22.278Z,99053.75
2023-02-17T03:02:03.494Z,99055.03
2023-02-17T03:05:05.235Z,99053.28
2023-02-17T03:07:42.758Z,99051.66
2023-02-17T03:10:12.235Z,99061.09
2023-02-17T03:12:43.237Z,99061.75
2023-02-17T03:15:33.229Z,99064.13
2023-02-17T03:18:04.470Z,99072.00
2023-02-17T03:20:41.145Z,99075.13
2023-02-17T03:23:10.802Z,99068.22
2023-02-17T03:25:39.806Z,99069.19
2023-02-17T03:28:09.826Z,99061.06
2023-02-17T03:30:39.876Z,99071.97
2023-02-17T03:33:09.587Z,99081.31
2023-02-17T03:35:38.454Z,99070.75
2023-02-17T03:38:07.873Z,99070.66
2023-02-17T03:40:37.160Z,99079.03
2023-02-17T03:43:06.192Z,99084.06
2023-02-17T03:45:38.239Z,99076.13
2023-02-17T03:48:07.385Z,99078.50
2023-02-17T03:50:36.171Z,99088.81
2023-02-17T03:53:06.151Z,99084.28
2023-02-17T03:55:34.980Z,99086.69
2023-02-17T03:58:04.178Z,99093.63
2023-02-17T04:00:33.007Z,99090.75
2023-02-17T04:03:02.114Z,99093.03
2023-02-17T04:05:30.868Z,99102.25
2023-02-17T04:07:59.996Z,99101.19
2023-02-17T04:10:28.748Z,99104.50
2023-02-17T04:12:57.710Z,99109.88
2023-02-17T04:15:26.494Z,99112.06
2023-02-17T04:17:55.347Z,99118.63
2023-02-17T04:20:24.107Z,99130.47
2023-02-17T04:22:53.217Z,99120.50
2023-02-17T04:25:22.022Z,99121.59
2023-02-17T04:27:50.888Z,99118.34
2023-02-17T04:30:19.735Z,99125.97
2023-02-17T04:32:48.807Z,99124.81
2023-02-17T04:35:17.543Z,99125.41
2023-02-17T04:37:46.474Z,99124.25
2023-02-17T04:40:15.470Z,99132.69
2023-02-17T04:42:44.907Z,99137.81
2023-02-17T04:45:14.402Z,99129.56
2023-02-17T04:47:43.302Z,99132.81
2023-02-17T04:50:12.477Z,99133.38
2023-02-17T04:52:41.782Z,99131.44
2023-02-17T04:55:11.571Z,99132.13
2023-02-17T04:57:40.608Z,99131.78
2023-02-17T05:00:10.311Z,99133.66
2023-02-17T05:02:39.377Z,99132.31
2023-02-17T05:05:08.453Z,99139.63
2023-02-17T05:07:37.470Z,99141.09
2023-02-17T05:10:06.508Z,99134.81
2023-02-17T05:12:36.330Z,99145.25
2023-02-17T05:15:06.086Z,99149.75
2023-02-17T05:17:35.564Z,99151.03
2023-02-17T05:20:05.573Z,99154.81
2023-02-17T05:22:34.549Z,99149.16
2023-02-17T05:25:03.284Z,99161.25
2023-02-17T05:27:33.111Z,99162.25
2023-02-17T05:30:01.925Z,99164.34
2023-02-17T05:32:31.164Z,99168.44
2023-02-17T05:34:59.906Z,99165.91
2023-02-17T05:37:29.048Z,99167.22
2023-02-17T05:39:57.750Z,99174.84
2023-02-17T05:42:29.943Z,99167.56
2023-02-17T05:44:58.827Z,99163.53
2023-02-17T05:47:27.825Z,99154.59
2023-02-17T05:49:56.994Z,99160.84
2023-02-17T05:52:25.687Z,99166.69
2023-02-17T05:54:54.696Z,99167.47
2023-02-17T05:57:23.815Z,99156.47
2023-02-17T05:59:52.940Z,99156.00
2023-02-17T06:02:22.110Z,99160.25
2023-02-17T06:04:51.217Z,99154.78
2023-02-17T06:07:19.948Z,99151.72
2023-02-17T06:09:48.876Z,99143.09
2023-02-17T06:12:17.673Z,99154.91
2023-02-17T06:14:46.550Z,99151.91
2023-02-17T06:17:15.267Z,99152.41
2023-02-17T06:19:44.263Z,99153.75
2023-02-17T06:22:12.941Z,99150.91
2023-02-17T06:24:43.585Z,99139.75
2023-02-17T06:27:12.641Z,99143.28
2023-02-17T06:29:41.683Z,99135.13
2023-02-17T06:32:10.852Z,99134.66
2023-02-17T06:34:39.596Z,99139.03
2023-02-17T06:37:08.909Z,99136.34
2023-02-17T06:39:37.586Z,99137.69
2023-02-17T06:42:06.781Z,99128.09
2023-02-17T06:44:35.573Z,99137.31
2023-02-17T06:47:05.310Z,99125.25
2023-02-17T06:49:34.170Z,99120.56
2023-02-17T06:52:03.125Z,99121.34
2023-02-17T06:54:31.840Z,99106.44
2023-02-17T06:57:00.801Z,99109.16
2023-02-17T06:59:29.567Z,99109.13
2023-02-17T07:01:59.982Z,99105.03
2023-02-17T07:04:30.959Z,99103.31
2023-02-17T07:06:59.706Z,99095.69
2023-02-17T07:09:28.594Z,99091.16
2023-02-17T07:11:58.552Z,99101.13
2023-02-17T07:14:28.019Z,99098.44
2023-02-17T07:16:56.956Z,99087.06
2023-02-17T07:19:26.197Z,99085.81
2023-02-17T07:21:54.985Z,99086.34
2023-02-17T07:24:24.054Z,99085.91
2023-02-17T07:26:54.756Z,99080.47
2023-02-17T07:29:24.352Z,99071.53
2023-02-17T07:31:53.186Z,99065.84
2023-02-17T07:34:22.196Z,99075.06
2023-02-17T07:36:50.983Z,99069.66
2023-02-17T07:39:20.200Z,99066.53
2023-02-17T07:41:49.024Z,99059.44
2023-02-17T07:44:23.990Z,99052.19
2023-02-17T07:47:08.194Z,99054.03
2023-02-17T07:49:41.466Z,99047.00
2023-02-17T07:52:11.732Z,99049.75
2023-02-17T07:54:40.808Z,99049.03
2023-02-17T07:57:09.537Z,99037.44
2023-02-17T07:59:38.616Z,99021.16
2023-02-17T08:02:07.592Z,99020.41
2023-02-17T08:04:36.677Z,99012.75
2023-02-17T08:07:05.622Z,99017.72
2023-02-17T08:09:55.520Z,99002.78
2023-02-17T08:12:45.910Z,99002.88
2023-02-17T08:15:15.384Z,99002.94
2023-02-17T08:17:45.262Z,98997.84
2023-02-17T08:20:16.605Z,98990.84
2023-02-17T08:22:45.489Z,98990.59
2023-02-17T08:25:14.216Z,99001.19
2023-02-17T08:27:43.421Z,98983.34
2023-02-17T08:30:12.602Z,98988.06
2023-02-17T08:32:41.652Z,98987.38
2023-02-17T08:35:11.421Z,98978.72
2023-02-17T08:37:40.349Z,98972.47
2023-02-17T08:40:09.803Z,98977.78
2023-02-17T08:42:39.961Z,98977.34
2023-02-17T08:45:09.161Z,98975.78
2023-02-17T08:47:38.431Z,98970.53
2023-02-17T08:50:12.974Z,98968.66
2023-02-17T08:52:42.258Z,98970.16
2023-02-17T08:55:11.269Z,98967.44
2023-02-17T08:57:43.348Z,98961.13
2023-02-17T09:00:13.307Z,98961.91
2023-02-17T09:02:44.432Z,98953.50
2023-02-17T09:05:15.134Z,98956.56
2023-02-17T09:07:54.102Z,98948.16
2023-02-17T09:10:23.334Z,98952.00
2023-02-17T09:12:52.992Z,98947.56
2023-02-17T09:15:21.948Z,98931.66
2023-02-17T09:17:50.702Z,98930.72
2023-02-17T09:20:25.058Z,98931.50
2023-02-17T09:22:54.607Z,98936.28
2023-02-17T09:25:23.697Z,98932.19
2023-02-17T09:27:52.791Z,98925.50
2023-02-17T09:30:21.585Z,98918.84
2023-02-17T09:32:50.635Z,98917.47
2023-02-17T09:35:20.061Z,98916.13
2023-02-17T09:37:49.071Z,98915.72
2023-02-17T09:40:50.683Z,98906.97
2023-02-17T09:43:32.354Z,98896.31
2023-02-17T09:46:21.113Z,98897.09
2023-02-17T09:48:52.144Z,98889.84
2023-02-17T09:51:40.621Z,98897.81
2023-02-17T09:54:19.327Z,98885.19
2023-02-17T09:56:51.735Z,98887.44
2023-02-17T09:59:43.073Z,98884.50
2023-02-17T10:02:27.294Z,98883.59
2023-02-17T10:04:58.876Z,98883.94
2023-02-17T10:07:34.383Z,98874.56
2023-02-17T10:10:12.914Z,98879.94
2023-02-17T10:12:55.641Z,98878.16
2023-02-17T10:15:40.955Z,98880.94
2023-02-17T10:18:17.848Z,98879.25
2023-02-17T10:21:20.324Z,98869.63
2023-02-17T10:23:49.622Z,98868.66
2023-02-17T10:26:27.597Z,98870.41
2023-02-17T10:29:02.591Z,98874.81
2023-02-17T10:32:36.121Z,98882.09
2023-02-17T10:35:18.127Z,98871.78
2023-02-17T10:37:57.033Z,98861.97
2023-02-17T10:40:29.331Z,98861.88
2023-02-17T10:43:10.415Z,98866.59
2023-02-17T10:45:44.640Z,98873.06
2023-02-17T10:48:17.257Z,98865.75
2023-02-17T10:50:48.748Z,98867.13
2023-02-17T10:53:26.082Z,98864.97
2023-02-17T10:56:09.758Z,98864.06
2023-02-17T10:58:54.556Z,98868.38
2023-02-17T11:01:27.272Z,98868.81
2023-02-17T11:04:11.139Z,98861.41
2023-02-17T11:06:58.412Z,98858.44
2023-02-17T11:09:34.236Z,98855.09
2023-02-17T11:12:13.850Z,98857.16
2023-02-17T11:14:48.279Z,98860.25
2023-02-17T11:17:35.797Z,98865.16
2023-02-17T11:20:27.766Z,98863.72
2023-02-17T11:23:18.069Z,98868.38
2023-02-17T11:26:00.936Z,98873.66
2023-02-17T11:28:30.647Z,98855.69
2023-02-17T11:31:04.064Z,98856.91
2023-02-17T11:33:41.616Z,98853.13
2023-02-17T11:36:30.790Z,98849.47
2023-02-17T11:39:01.843Z,98850.00
2023-02-17T11:41:40.836Z,98849.78
2023-02-17T11:44:13.493Z,98860.72
2023-02-17T11:46:56.798Z,98855.00
2023-02-17T11:49:41.147Z,98853.03
2023-02-17T11:52:35.099Z,98850.72
2023-02-17T11:55:32.961Z,98845.66
2023-02-17T11:58:22.551Z,98849.69
2023-02-17T12:01:11.089Z,98844.81
2023-02-17T12:04:15.200Z,98845.53
2023-02-17T12:06:44.118Z,98853.31
2023-02-17T12:09:24.716Z,98854.31
2023-02-17T12:12:17.940Z,98854.19
2023-02-17T12:15:13.981Z,98857.38
2023-02-17T12:18:08.788Z,98854.19
2023-02-17T12:20:43.144Z,98846.59
2023-02-17T12:23:21.023Z,98841.78
2023-02-17T12:26:13.163Z,98849.16
2023-02-17T12:28:59.928Z,98844.31
2023-02-17T12:31:53.056Z,98848.13
2023-02-17T12:34:35.474Z,98853.72
2023-02-17T12:37:07.718Z,98848.50
2023-02-17T12:39:43.032Z,98848.50
2023-02-17T12:42:33.387Z,98840.03
2023-02-17T12:45:08.784Z,98838.78
2023-02-17T12:48:06.130Z,98842.91
2023-02-17T12:51:10.516Z,98842.38
2023-02-17T12:54:01.073Z,98858.97
2023-02-17T12:56:38.997Z,98866.56
2023-02-17T12:59:27.779Z,98864.34
2023-02-17T13:02:11.795Z,98868.88
2023-02-17T13:04:42.965Z,98874.22
2023-02-17T13:07:42.581Z,98863.19
2023-02-17T13:10:35.977Z,98859.84
2023-02-17T13:13:15.454Z,98859.88
2023-02-17T13:15:47.849Z,98860.59
2023-02-17T13:18:25.885Z,98870.81
2023-02-17T13:20:54.957Z,98866.88
2023-02-17T13:23:33.103Z,98868.88
2023-02-17T13:26:21.576Z,98872.34
2023-02-17T13:28:54.195Z,98863.56
2023-02-17T13:31:26.036Z,98872.44
2023-02-17T13:34:00.662Z,98870.50
2023-02-17T13:36:29.463Z,98880.09
2023-02-17T13:39:25.253Z,98886.38
2023-02-17T13:41:56.746Z,98880.22
2023-02-17T13:44:31.815Z,98875.66
2023-02-17T13:47:16.449Z,98872.06
2023-02-17T13:49:54.267Z,98881.69
2023-02-17T13:52:29.232Z,98876.91
2023-02-17T13:54:59.242Z,98871.66
2023-02-17T13:57:31.483Z,98877.81
2023-02-17T14:00:24.122Z,98883.19
2023-02-17T14:02:59.094Z,98886.41
2023-02-17T14:05:34.287Z,98883.94
2023-02-17T14:08:33.053Z,98877.88
2023-02-17T14:11:23.115Z,98892.69
2023-02-17T14:13:55.293Z,98890.66
2023-02-17T14:16:44.390Z,98883.06
2023-02-17T14:19:14.984Z,98887.72
2023-02-17T14:21:47.443Z,98896.28
2023-02-17T14:24:27.160Z,98891.28
2023-02-17T14:27:06.679Z,98904.75
2023-02-17T14:29:46.189Z,98909.09
2023-02-17T14:32:34.331Z,98910.84
2023-02-17T14:35:14.872Z,98909.31
2023-02-17T14:37:44.567Z,98907.38
2023-02-17T14:40:27.296Z,98903.47
2023-02-17T14:42:56.177Z,98904.28
2023-02-17T14:45:25.006Z,98910.41
2023-02-17T14:47:53.890Z,98916.66
2023-02-17T14:50:22.767Z,98918.63
2023-02-17T14:52:53.330Z,98920.38
2023-02-17T14:55:50.988Z,98921.66
2023-02-17T14:58:22.544Z,98921.84
2023-02-17T15:00:52.568Z,98918.72
2023-02-17T15:03:21.387Z,98921.53
2023-02-17T15:05:51.101Z,98925.91
2023-02-17T15:08:23.291Z,98927.59
2023-02-17T15:10:52.424Z,98946.25
2023-02-17T15:13:22.861Z,98952.19
2023-02-17T15:15:52.239Z,98949.84
2023-02-17T15:18:22.270Z,98946.59
2023-02-17T15:20:52.892Z,98947.59
2023-02-17T15:23:24.701Z,98951.00
2023-02-17T15:25:55.851Z,98946.84
2023-02-17T15:28:24.910Z,98951.28
2023-02-17T15:30:57.229Z,98953.00
2023-02-17T15:33:25.931Z,98942.72
2023-02-17T15:35:56.060Z,98943.41
2023-02-17T15:38:28.128Z,98942.72
2023-02-17T15:40:59.730Z,98944.53
2023-02-17T15:46:18.116Z,98945.44
2023-02-17T15:48:53.156Z,98941.56
2023-02-17T15:51:22.195Z,98941.06
2023-02-17T15:53:50.916Z,98933.47
2023-02-17T15:56:31.264Z,98936.34
2023-02-17T15:59:05.742Z,98934.13
2023-02-17T16:01:36.040Z,98942.97
2023-02-17T16:04:05.610Z,98943.19
2023-02-17T16:06:34.461Z,98945.94
2023-02-17T16:09:03.600Z,98942.59
2023-02-17T16:11:33.250Z,98945.28
2023-02-17T16:14:02.929Z,98946.94
2023-02-17T16:16:35.050Z,98948.47
2023-02-17T16:19:04.028Z,98953.22
2023-02-17T16:21:32.759Z,98952.38
2023-02-17T16:24:01.928Z,98954.91
2023-02-17T16:26:34.752Z,98955.50
2023-02-17T16:29:13.662Z,98963.50
2023-02-17T16:31:42.808Z,98962.09
2023-02-17T16:34:21.848Z,98965.19
2023-02-17T16:36:52.967Z,98967.28
2023-02-17T16:39:22.683Z,98971.09
2023-02-17T16:41:51.705Z,98972.03
2023-02-17T16:44:23.278Z,98958.00
2023-02-17T16:46:54.793Z,98959.81
2023-02-17T16:49:37.647Z,98965.41
2023-02-17T16:52:20.108Z,98960.53
2023-02-17T16:54:49.037Z,98973.91
2023-02-17T16:57:20.450Z,98973.59
2023-02-17T16:59:49.615Z,98975.59
2023-02-17T17:02:19.821Z,98972.28
2023-02-17T17:04:49.734Z,98972.41
2023-02-17T17:07:18.964Z,98983.69
2023-02-17T17:10:14.713Z,98977.63
2023-02-17T17:12:37.172Z,98973.25
2023-02-17T17:15:06.675Z,98963.84
2023-02-17T17:17:41.375Z,98974.88
2023-02-17T17:20:18.303Z,98973.13
2023-02-17T17:22:47.760Z,98975.28
2023-02-17T17:25:16.586Z,98971.97
2023-02-17T17:27:46.899Z,98975.50
2023-02-17T17:30:20.081Z,98977.72
2023-02-17T17:32:49.524Z,98967.72
2023-02-17T17:35:18.957Z,98969.47
2023-02-17T17:37:48.600Z,98970.41
2023-02-17T17:40:25.608Z,98967.50
2023-02-17T17:42:54.986Z,98961.59
2023-02-17T17:45:25.401Z,98953.72
2023-02-17T17:47:54.367Z,98957.44
2023-02-17T17:50:25.903Z,98956.41
2023-02-17T17:52:55.012Z,98949.00
2023-02-17T17:55:23.947Z,98953.31
2023-02-17T17:57:56.312Z,98949.78
2023-02-17T18:00:26.331Z,98950.75
2023-02-17T18:02:55.170Z,98959.53
2023-02-17T18:05:24.097Z,98963.00
2023-02-17T18:07:53.306Z,98959.63
2023-02-17T18:10:22.484Z,98956.19
2023-02-17T18:12:51.292Z,98947.66
2023-02-17T18:15:20.754Z,98952.84
2023-02-17T18:17:50.364Z,98954.59
2023-02-17T18:20:19.908Z,98957.25
2023-02-17T18:22:48.724Z,98951.38
2023-02-17T18:25:17.918Z,98945.34
2023-02-17T18:27:48.267Z,98944.31
2023-02-17T18:30:22.842Z,98943.19
2023-02-17T18:32:52.734Z,98937.47
2023-02-17T18:35:22.220Z,98936.69
2023-02-17T18:37:51.513Z,98947.13
2023-02-17T18:40:22.831Z,98938.41
2023-02-17T18:42:51.767Z,98932.59
2023-02-17T18:45:20.814Z,98942.97
2023-02-17T18:47:49.709Z,98940.47
2023-02-17T18:50:18.730Z,98931.78
2023-02-17T18:52:47.951Z,98941.34
2023-02-17T18:55:17.065Z,98933.66
2023-02-17T18:57:46.678Z,98933.66
2023-02-17T19:00:17.562Z,98932.66
2023-02-17T19:02:46.530Z,98938.75
2023-02-17T19:05:15.620Z,98930.13
2023-02-17T19:07:44.732Z,98933.53
2023-02-17T19:10:14.183Z,98935.06
2023-02-17T19:12:43.282Z,98931.75
2023-02-17T19:15:12.469Z,98924.00
2023-02-17T19:17:42.270Z,98924.81
2023-02-17T19:20:11.620Z,98925.75
2023-02-17T19:22:40.787Z,98928.50
2023-02-17T19:25:10.022Z,98917.38
2023-02-17T19:27:41.620Z,98916.47
2023-02-17T19:30:12.692Z,98916.66
2023-02-17T19:32:41.596Z,98919.56
2023-02-17T19:35:11.807Z,98914.50
2023-02-17T19:37:40.839Z,98914.38
2023-02-17T19:40:09.927Z,98913.59
2023-02-17T19:42:41.009Z,98909.13
2023-02-17T19:45:10.374Z,98906.38
2023-02-17T19:47:39.042Z,98907.25
2023-02-17T19:50:08.879Z,98896.06
2023-02-17T19:52:38.565Z,98903.56
2023-02-17T19:55:07.851Z,98898.59
2023-02-17T19:57:36.950Z,98910.00
2023-02-17T20:00:08.260Z,98904.50
2023-02-17T20:02:37.860Z,98903.94
2023-02-17T20:05:06.874Z,98900.56
2023-02-17T20:07:36.137Z,98901.69
2023-02-17T20:10:10.029Z,98902.41
2023-02-17T20:12:39.587Z,98895.72
2023-02-17T20:15:08.771Z,98901.09
2023-02-17T20:17:37.900Z,98899.44
2023-02-17T20:20:08.582Z,98887.81
2023-02-17T20:22:37.555Z,98885.22
2023-02-17T20:25:07.316Z,98892.31
2023-02-17T20:27:36.312Z,98890.66
2023-02-17T20:30:05.515Z,98889.00
2023-02-17T20:32:34.362Z,98889.00
2023-02-17T20:35:03.103Z,98889.00
2023-02-17T20:37:32.163Z,98879.47
2023-02-17T20:40:01.725Z,98881.34
2023-02-17T20:42:30.973Z,98887.44
2023-02-17T20:45:00.475Z,98890.88
2023-02-17T20:47:29.395Z,98890.09
2023-02-17T20:49:58.088Z,98897.03
2023-02-17T20:52:27.186Z,98891.81
2023-02-17T20:54:55.860Z,98893.66
2023-02-17T20:57:24.794Z,98889.50
2023-02-17T20:59:53.662Z,98883.44
2023-02-17T21:02:22.797Z,98882.59
2023-02-17T21:04:51.570Z,98879.16
2023-02-17T21:07:20.701Z,98880.81
2023-02-17T21:09:49.588Z,98880.00
2023-02-17T21:12:20.297Z,98880.00
2023-02-17T21:14:50.015Z,98874.69
2023-02-17T21:17:19.879Z,98874.03
2023-02-17T21:19:48.808Z,98868.91
2023-02-17T21:22:17.713Z,98868.97
2023-02-17T21:24:46.799Z,98869.84
2023-02-17T21:27:15.581Z,98879.28
2023-02-17T21:29:44.629Z,98869.84
2023-02-17T21:32:13.371Z,98867.31
2023-02-17T21:34:42.630Z,98858.75
2023-02-17T21:37:12.626Z,98851.41
2023-02-17T21:39:41.549Z,98844.56
2023-02-17T21:42:10.416Z,98842.78
2023-02-17T21:44:55.089Z,98849.53
2023-02-17T21:47:24.333Z,98836.75
2023-02-17T21:49:55.324Z,98831.75
2023-02-17T21:52:24.352Z,98832.13
2023-02-17T21:54:53.088Z,98825.03
2023-02-17T21:57:22.352Z,98820.34
2023-02-17T21:59:51.102Z,98823.69
2023-02-17T22:02:20.187Z,98822.78
2023-02-17T22:04:49.076Z,98810.09
2023-02-17T22:07:17.993Z,98811.75
2023-02-17T22:09:47.266Z,98816.91
2023-02-17T22:12:16.275Z,98818.25
2023-02-17T22:14:45.203Z,98808.66
2023-02-17T22:17:14.153Z,98795.19
2023-02-17T22:19:43.027Z,98799.56
2023-02-17T22:22:12.242Z,98800.56
2023-02-17T22:24:40.951Z,98791.91
2023-02-17T22:27:09.940Z,98789.31
2023-02-17T22:29:38.727Z,98790.25
2023-02-17T22:32:07.697Z,98786.78
2023-02-17T22:34:36.582Z,98786.78
2023-02-17T22:37:05.628Z,98788.75
2023-02-17T22:39:34.393Z,98792.06
2023-02-17T22:42:03.863Z,98785.00
2023-02-17T22:44:32.622Z,98786.22
2023-02-17T22:47:01.546Z,98792.22
2023-02-17T22:49:30.443Z,98789.00
2023-02-17T22:51:59.382Z,98789.91
2023-02-17T22:54:28.179Z,98781.56
2023-02-17T22:56:57.369Z,98783.38
2023-02-17T22:59:26.403Z,98787.00
2023-02-17T23:01:55.559Z,98783.47
2023-02-17T23:04:24.506Z,98784.31
2023-02-17T23:06:53.423Z,98774.84
2023-02-17T23:09:22.185Z,98780.06
2023-02-17T23:11:51.286Z,98778.31
2023-02-17T23:14:28.015Z,98760.00
2023-02-17T23:17:00.813Z,98763.47
2023-02-17T23:19:31.047Z,98757.50
2023-02-17T23:22:03.356Z,98758.19
2023-02-17T23:24:32.756Z,98752.41
2023-02-17T23:27:02.395Z,98758.44
2023-02-17T23:29:32.936Z,98756.75
2023-02-17T23:32:02.472Z,98751.91
2023-02-17T23:34:31.534Z,98757.06
2023-02-17T23:37:01.059Z,98757.94
2023-02-17T23:39:29.903Z,98758.75
2023-02-17T23:41:58.961Z,98761.41
2023-02-17T23:44:27.797Z,98764.91
2023-02-17T23:46:56.686Z,98763.91
2023-02-17T23:49:25.345Z,98766.50
2023-02-17T23:51:54.442Z,98761.34
2023-02-17T23:54:25.858Z,98766.41
2023-02-17T23:56:54.809Z,98770.63
2023-02-17T23:59:23.613Z,98766.25
